Terminal Aerodrome Forecast
Issued by NWS

Home | Current Version | Previous Version | Text Only | Print | Product List | Glossary Off
Versions: 1 2 3 4 5 6 7 8 9 10 11 12 13

000
FTUS43 KICT 250528
TAFRSL
TAF
KRSL 250528Z 2506/2606 18012KT P6SM FEW250
     FM251400 18015G25KT P6SM BKN250
     FM260100 33015G22KT P6SM SCT015 OVC250
     FM260500 35015G22KT P6SM BKN015=

USA.gov is the U.S. government's official web portal to all federal, state and local government web resources and services.